Mindoro Star — V7RE6 — position and weather

sailwx.info

Track history (hours):
 
Tides and Currents Weather Stations Pressure Air Temp Water Temp Dewpoint Dewpoint Depression Visibility Wind Speed Wind Dir Waves Ship Positions

Mindoro Star

Last reported at 2015-Jun-26 07:11 UTC. Time now 2015-Jun-30 08:20 UTC.
Position N 29°31' W 094°53'.

Length 238 m; draft 12.1 m.

Type: Tanker. MMSI: 538003490.

Date/timePositionNaut miles runAvg speedWind from/ knotsBaromVisibWave heightAir tempDewpointWater temp
2015-Jun-26 07:11N 29°31' W 094°53'812.4
2015-Jun-26 06:34N 29°38' W 094°58'6 4.8
2015-Jun-26 05:13N 29°44' W 095°01'0 0.0
2015-Jun-26 03:16N 29°44' W 095°01'0 0.0
2015-Jun-24 06:33N 29°44' W 095°01'5 5.0
2015-Jun-24 05:33N 29°39' W 094°58'1010.4
2015-Jun-24 04:33N 29°30' W 094°52'1110.6
2015-Jun-24 03:33N 29°21' W 094°47'  
2015-Jun-17 14:27N 25°48' W 079°32'8 9.3
2015-Jun-17 13:34N 25°56' W 079°30'1110.1
2015-Jun-17 12:30N 26°05' W 079°25'1111.2
2015-Jun-17 11:29N 26°14' W 079°16'1513.1
2015-Jun-17 10:18N 26°16' W 078°59'  
Track history (hours):
 
Tides and Currents Weather Stations Pressure Air Temp Water Temp Dewpoint Dewpoint Depression Visibility Wind Speed Wind Dir Waves Ship Positions

Mindoro Star

Last reported at 2015-Jun-26 07:11 UTC. Time now 2015-Jun-30 08:20 UTC.
Position N 29°31' W 094°53'.

Length 238 m; draft 12.1 m.

Type: Tanker. MMSI: 538003490.

Date/timePositionNaut miles runAvg speedWind from/ knotsBaromVisibWave heightAir tempDewpointWater temp
2015-Jun-26 07:11N 29°31' W 094°53'812.4
2015-Jun-26 06:34N 29°38' W 094°58'6 4.8
2015-Jun-26 05:13N 29°44' W 095°01'0 0.0
2015-Jun-26 03:16N 29°44' W 095°01'0 0.0
2015-Jun-24 06:33N 29°44' W 095°01'5 5.0
2015-Jun-24 05:33N 29°39' W 094°58'1010.4
2015-Jun-24 04:33N 29°30' W 094°52'1110.6
2015-Jun-24 03:33N 29°21' W 094°47'  
2015-Jun-17 14:27N 25°48' W 079°32'8 9.3
2015-Jun-17 13:34N 25°56' W 079°30'1110.1
2015-Jun-17 12:30N 26°05' W 079°25'1111.2
2015-Jun-17 11:29N 26°14' W 079°16'1513.1
2015-Jun-17 10:18N 26°16' W 078°59'  

Dump ship's entire track history